Time;durP1;ratioP1;P1;durP2;ratioP2;P2;SDS_P1;SDS_P2;PMS_P1;PMS_P2;Temp;Humidity;BMP_temperature;BMP_pressure;BME280_temperature;BME280_humidity;BME280_pressure;Samples;Min_cycle;Max_cycle;Signal;HPM_P1;HPM_P2
2023/07/16 00:01:19;;;;;;;5.57;4.97;;;22.60;1.00;;;;;;5046651;28;20530;-90
2023/07/16 00:03:46;;;;;;;5.97;4.70;;;22.40;99.90;;;;;;5056528;28;20486;-89
2023/07/16 00:06:14;;;;;;;4.57;4.17;;;22.60;1.00;;;;;;5056577;28;20451;-91
2023/07/16 00:08:41;;;;;;;4.43;4.03;;;22.40;99.90;;;;;;5053035;28;20442;-89
2023/07/16 00:11:08;;;;;;;4.43;4.03;;;22.40;1.00;;;;;;5060157;28;20455;-86
2023/07/16 00:13:35;;;;;;;6.50;4.40;;;22.30;1.00;;;;;;5060265;28;20434;-87
2023/07/16 00:16:02;;;;;;;6.80;4.43;;;22.40;99.90;;;;;;5060239;28;20458;-88
2023/07/16 00:18:30;;;;;;;6.00;4.23;;;22.40;1.00;;;;;;5056622;28;20458;-90
2023/07/16 00:20:57;;;;;;;5.00;4.50;;;;;;;;;;5049909;28;20497;-89
2023/07/16 00:23:26;;;;;;;7.33;4.40;;;22.50;1.00;;;;;;5049885;28;20487;-89
2023/07/16 00:25:52;;;;;;;5.60;4.70;;;22.50;1.00;;;;;;5047350;28;20514;-89
2023/07/16 00:28:19;;;;;;;4.97;4.40;;;22.60;1.00;;;;;;5046269;28;20518;-89
2023/07/16 00:30:46;;;;;;;4.33;3.90;;;22.50;1.00;;;;;;5046195;28;20466;-89
2023/07/16 00:33:13;;;;;;;4.80;4.40;;;;;;;;;;5046900;28;20451;-89
2023/07/16 00:35:47;;;;;;;6.10;5.47;;;22.40;93.90;;;;;;5050217;28;20470;-89
2023/07/16 00:38:14;;;;;;;5.13;4.73;;;;;;;;;;5049568;28;20412;-89
2023/07/16 00:40:42;;;;;;;4.97;4.43;;;22.50;1.00;;;;;;5046833;28;20494;-89
2023/07/16 00:43:09;;;;;;;5.70;5.20;;;22.50;42.40;;;;;;5046840;28;20510;-89
2023/07/16 00:45:36;;;;;;;7.17;6.50;;;22.60;1.00;;;;;;5050368;28;20435;-89
2023/07/16 00:48:03;;;;;;;6.87;6.20;;;;;;;;;;5050243;28;20506;-89
2023/07/16 00:50:33;;;;;;;5.73;5.20;;;;;;;;;;5046925;28;20553;-89
2023/07/16 00:53:00;;;;;;;6.30;5.33;;;22.60;1.00;;;;;;5051241;28;20461;-89
2023/07/16 00:55:29;;;;;;;4.97;4.57;;;23.90;99.90;;;;;;5045409;28;20510;-89
2023/07/16 00:58:02;;;;;;;4.97;4.50;;;22.60;1.00;;;;;;5051298;28;20474;-90
2023/07/16 01:00:29;;;;;;;6.03;5.53;;;22.60;1.00;;;;;;5051254;28;20470;-89
2023/07/16 01:02:56;;;;;;;5.67;5.07;;;;;;;;;;5058389;28;20542;-88
2023/07/16 01:05:25;;;;;;;6.50;5.33;;;22.20;1.00;;;;;;5059268;28;20441;-86
2023/07/16 01:07:58;;;;;;;5.93;5.20;;;22.40;99.90;;;;;;5058464;28;20454;-90
2023/07/16 01:10:27;;;;;;;5.23;4.83;;;22.30;1.00;;;;;;5056765;28;20510;-90
2023/07/16 01:12:57;;;;;;;5.87;4.33;;;22.30;1.00;;;;;;5053407;28;20510;-90
2023/07/16 01:15:25;;;;;;;13.80;5.27;;;;;;;;;;5050982;28;20439;-92
2023/07/16 01:17:52;;;;;;;6.50;5.70;;;22.20;1.00;;;;;;5046339;28;20447;-91
2023/07/16 01:20:19;;;;;;;4.97;4.60;;;;;;;;;;5046811;28;20471;-92
2023/07/16 01:23:17;;;;;;;6.03;5.53;;;22.20;42.60;;;;;;5047368;28;20534;-91
2023/07/16 01:26:01;;;;;;;6.50;5.93;;;22.20;99.90;;;;;;5037123;28;20537;-88
2023/07/16 01:29:07;;;;;;;6.77;6.20;;;22.10;99.90;;;;;;5058925;28;20443;-89
2023/07/16 01:31:35;;;;;;;7.60;6.33;;;21.90;99.90;;;;;;5051177;28;20523;-90
2023/07/16 01:34:06;;;;;;;8.20;7.47;;;22.00;99.90;;;;;;5047045;28;20506;-90
2023/07/16 01:36:33;;;;;;;6.43;5.93;;;;;;;;;;5048771;28;20450;-91
2023/07/16 01:39:00;;;;;;;6.63;6.03;;;;;;;;;;5042620;28;20529;-90
2023/07/16 01:41:27;;;;;;;7.30;6.70;;;21.80;1.00;;;;;;5040009;28;20481;-90
2023/07/16 01:43:54;;;;;;;7.30;6.70;;;22.00;1.00;;;;;;5056545;28;20494;-88
2023/07/16 01:46:22;;;;;;;7.43;6.83;;;22.10;99.90;;;;;;5045950;28;20462;-90
2023/07/16 01:48:49;;;;;;;7.83;6.67;;;;;;;;;;5042866;28;20537;-90
2023/07/16 01:51:16;;;;;;;7.57;6.43;;;22.10;99.90;;;;;;5039155;28;20458;-90
2023/07/16 01:53:43;;;;;;;6.43;5.93;;;22.30;1.00;;;;;;5039663;28;20533;-90
2023/07/16 01:56:10;;;;;;;6.30;5.80;;;22.20;1.00;;;;;;5040197;28;20509;-90
2023/07/16 01:58:37;;;;;;;7.17;6.37;;;;;;;;;;5038725;28;20503;-91
2023/07/16 02:01:04;;;;;;;5.63;5.13;;;22.30;1.00;;;;;;5038446;28;20466;-90
2023/07/16 02:03:32;;;;;;;7.40;5.50;;;22.40;99.90;;;;;;5040495;28;20901;-90
2023/07/16 02:05:59;;;;;;;8.80;5.40;;;22.40;99.90;;;;;;5043479;28;20454;-90
2023/07/16 02:08:26;;;;;;;4.93;4.53;;;22.50;99.90;;;;;;5050299;28;20451;-88
2023/07/16 02:10:53;;;;;;;5.00;4.40;;;22.50;99.90;;;;;;5062499;28;20450;-88
2023/07/16 02:13:20;;;;;;;6.53;4.47;;;;;;;;;;5062282;28;20489;-89
2023/07/16 02:15:47;;;;;;;5.80;4.47;;;;;;;;;;5051135;28;20464;-90
2023/07/16 02:18:15;;;;;;;4.80;4.00;;;22.60;99.90;;;;;;5048048;28;20446;-89
2023/07/16 02:20:45;;;;;;;5.60;5.00;;;22.30;99.90;;;;;;5045727;28;20466;-90
2023/07/16 02:23:11;;;;;;;4.23;3.93;;;22.30;99.90;;;;;;5043345;28;20462;-90
2023/07/16 02:25:38;;;;;;;4.13;3.60;;;22.10;1.00;;;;;;5045077;28;20450;-90
2023/07/16 02:28:05;;;;;;;5.20;4.63;;;;;;;;;;5045916;28;20788;-90
2023/07/16 02:30:32;;;;;;;4.43;4.03;;;;;;;;;;5042444;28;21082;-90
2023/07/16 02:33:00;;;;;;;8.87;5.17;;;;;;;;;;5041137;28;20536;-90
2023/07/16 02:35:27;;;;;;;7.10;4.30;;;21.20;1.00;;;;;;5040900;28;20442;-90
2023/07/16 02:37:55;;;;;;;5.00;4.43;;;20.90;1.00;;;;;;5040958;28;20525;-90
2023/07/16 02:40:22;;;;;;;7.53;4.50;;;20.90;1.00;;;;;;5044637;28;20482;-90
2023/07/16 02:42:49;;;;;;;3.83;3.53;;;20.70;99.90;;;;;;5041333;28;20490;-90
2023/07/16 02:45:16;;;;;;;4.70;4.20;;;20.70;99.90;;;;;;5041211;28;20443;-90
2023/07/16 02:47:43;;;;;;;4.57;4.17;;;20.70;99.90;;;;;;5041338;28;20453;-89
2023/07/16 02:50:11;;;;;;;6.20;4.40;;;20.70;99.90;;;;;;5041217;28;20502;-90
2023/07/16 02:52:38;;;;;;;5.60;5.03;;;20.60;99.90;;;;;;5041205;28;20994;-91
2023/07/16 02:55:07;;;;;;;7.43;5.60;;;20.60;99.90;;;;;;5040707;28;20505;-90
2023/07/16 02:57:34;;;;;;;6.73;4.73;;;20.60;99.90;;;;;;5041776;28;20457;-90
2023/07/16 03:00:01;;;;;;;5.57;4.70;;;20.20;99.90;;;;;;5040518;28;20461;-89
2023/07/16 03:02:27;;;;;;;4.73;4.33;;;20.60;99.90;;;;;;5040845;28;20508;-90
2023/07/16 03:04:54;;;;;;;4.73;4.30;;;20.50;99.90;;;;;;5040846;28;20485;-90
2023/07/16 03:07:21;;;;;;;7.07;5.10;;;20.50;99.90;;;;;;5040392;28;20442;-89
2023/07/16 03:09:48;;;;;;;8.20;4.73;;;20.50;99.90;;;;;;5040157;28;20486;-89
2023/07/16 03:12:16;;;;;;;6.13;5.00;;;20.50;99.90;;;;;;5039733;28;20454;-90
2023/07/16 03:14:43;;;;;;;6.00;5.40;;;;;;;;;;5039402;28;20820;-90
2023/07/16 03:17:10;;;;;;;5.23;4.70;;;20.40;99.90;;;;;;5041220;28;20891;-90
2023/07/16 03:19:37;;;;;;;4.63;4.20;;;20.40;99.90;;;;;;5040259;28;20549;-90
2023/07/16 03:22:05;;;;;;;4.30;3.90;;;20.30;99.90;;;;;;5041143;28;20502;-90
2023/07/16 03:24:31;;;;;;;5.30;4.90;;;20.30;99.90;;;;;;5041039;28;20832;-90
2023/07/16 03:26:58;;;;;;;4.67;4.37;;;20.20;99.90;;;;;;5040260;28;20474;-90
2023/07/16 03:29:26;;;;;;;4.20;3.80;;;20.20;99.90;;;;;;5040336;28;20457;-90
2023/07/16 03:31:53;;;;;;;4.20;3.90;;;20.20;99.90;;;;;;5039361;28;20522;-90
2023/07/16 03:34:20;;;;;;;5.03;4.53;;;20.20;99.90;;;;;;5042071;28;20867;-89
2023/07/16 03:36:47;;;;;;;4.63;4.17;;;20.30;99.90;;;;;;5052550;28;20446;-88
2023/07/16 03:39:14;;;;;;;4.07;3.77;;;;;;;;;;5057747;28;20442;-90
2023/07/16 03:41:41;;;;;;;4.03;3.73;;;20.30;99.90;;;;;;5060296;28;20498;-89
2023/07/16 03:44:08;;;;;;;3.27;3.07;;;20.20;99.90;;;;;;5049507;28;20502;-90
2023/07/16 03:46:36;;;;;;;4.33;3.93;;;20.20;99.90;;;;;;5050108;28;20459;-90
2023/07/16 03:49:03;;;;;;;3.50;3.20;;;20.40;99.90;;;;;;5042238;28;20473;-90
2023/07/16 03:51:30;;;;;;;3.20;3.00;;;20.20;99.90;;;;;;5041584;28;20509;-90
2023/07/16 03:53:57;;;;;;;3.70;3.40;;;19.90;99.90;;;;;;5040104;28;20478;-90
2023/07/16 03:56:24;;;;;;;3.73;3.43;;;20.10;99.90;;;;;;5040336;28;20520;-90
2023/07/16 03:58:51;;;;;;;5.70;4.07;;;;;;;;;;5049789;28;20454;-88
2023/07/16 04:01:18;;;;;;;4.20;3.10;;;20.10;99.90;;;;;;5060534;28;20443;-88
2023/07/16 04:03:46;;;;;;;4.50;4.10;;;20.20;99.90;;;;;;5060398;28;20469;-89
2023/07/16 04:06:13;;;;;;;4.00;3.70;;;20.10;99.90;;;;;;5054556;28;20506;-90
2023/07/16 04:08:40;;;;;;;6.47;3.40;;;20.20;99.90;;;;;;5041721;28;20463;-90
2023/07/16 04:11:08;;;;;;;4.80;4.23;;;20.20;99.90;;;;;;5040689;28;20493;-90
2023/07/16 04:13:35;;;;;;;4.93;4.30;;;;;;;;;;5040937;28;20454;-91
2023/07/16 04:16:02;;;;;;;5.03;4.33;;;20.30;99.90;;;;;;5040328;28;20455;-90
2023/07/16 04:18:29;;;;;;;5.50;3.80;;;20.30;99.90;;;;;;5040331;28;20527;-90
2023/07/16 04:20:57;;;;;;;5.27;4.53;;;20.20;99.90;;;;;;5040993;28;20462;-90
2023/07/16 04:23:24;;;;;;;4.20;3.87;;;20.30;99.90;;;;;;5039550;28;20482;-90
2023/07/16 04:25:53;;;;;;;4.20;3.90;;;20.30;99.90;;;;;;5039221;28;20431;-91
2023/07/16 04:28:20;;;;;;;4.43;4.03;;;20.40;99.90;;;;;;5044987;28;20493;-90
2023/07/16 04:30:47;;;;;;;4.83;4.33;;;;;;;;;;5043214;28;20467;-91
2023/07/16 04:33:14;;;;;;;4.53;4.13;;;20.40;99.90;;;;;;5058045;28;20470;-90
2023/07/16 04:35:40;;;;;;;8.57;5.00;;;20.40;99.90;;;;;;5058494;28;20442;-88
2023/07/16 04:38:09;;;;;;;5.20;4.73;;;20.40;99.90;;;;;;5059653;28;20454;-89
2023/07/16 04:40:35;;;;;;;4.47;4.10;;;20.20;99.90;;;;;;5059525;28;20462;-88
2023/07/16 04:43:02;;;;;;;4.90;4.40;;;20.20;99.90;;;;;;5049765;28;20498;-88
2023/07/16 04:45:29;;;;;;;4.27;3.73;;;20.40;99.90;;;;;;5058423;28;20514;-89
2023/07/16 04:47:56;;;;;;;5.73;5.17;;;20.60;99.90;;;;;;5057249;28;20457;-90
2023/07/16 04:50:23;;;;;;;6.00;5.40;;;;;;;;;;5058804;28;20474;-90
2023/07/16 04:52:50;;;;;;;4.90;4.47;;;20.40;99.90;;;;;;5055237;28;20498;-90
2023/07/16 04:55:18;;;;;;;5.33;4.17;;;20.40;99.90;;;;;;5043485;28;20530;-90
2023/07/16 04:57:45;;;;;;;4.40;4.00;;;20.40;99.90;;;;;;5041194;28;20518;-90
2023/07/16 05:00:12;;;;;;;5.77;5.17;;;20.40;99.90;;;;;;5040072;28;20990;-90
2023/07/16 05:02:39;;;;;;;6.00;5.40;;;20.40;99.90;;;;;;5038861;28;20450;-90
2023/07/16 05:05:07;;;;;;;4.77;4.37;;;20.50;99.90;;;;;;5039782;28;20857;-90
2023/07/16 05:07:34;;;;;;;8.00;5.03;;;20.50;99.90;;;;;;5039281;28;20455;-90
2023/07/16 05:10:01;;;;;;;5.20;4.80;;;20.80;99.90;;;;;;5039697;28;20457;-90
2023/07/16 05:12:29;;;;;;;5.93;4.93;;;20.50;99.90;;;;;;5052691;28;20506;-89
2023/07/16 05:14:56;;;;;;;5.33;4.70;;;20.50;99.90;;;;;;5045395;28;20447;-90
2023/07/16 05:17:23;;;;;;;5.27;4.33;;;20.50;99.90;;;;;;5039901;28;20813;-90
2023/07/16 05:19:50;;;;;;;5.10;4.70;;;;;;;;;;5040710;28;20534;-90
2023/07/16 05:22:17;;;;;;;5.43;5.03;;;;;;;;;;5045035;28;20457;-90
2023/07/16 05:24:44;;;;;;;5.87;4.87;;;;;;;;;;5056997;28;20474;-89
2023/07/16 05:27:11;;;;;;;5.03;4.67;;;20.70;99.90;;;;;;5052608;28;20823;-90
2023/07/16 05:29:39;;;;;;;4.37;4.07;;;20.90;99.90;;;;;;5046491;28;20451;-91
2023/07/16 05:32:07;;;;;;;5.50;5.00;;;20.90;99.90;;;;;;5042993;28;20550;-92
2023/07/16 05:34:34;;;;;;;5.93;5.40;;;21.00;99.90;;;;;;5040294;28;20450;-91
2023/07/16 05:37:00;;;;;;;5.23;4.60;;;21.10;99.90;;;;;;5040648;28;20788;-91
2023/07/16 05:39:27;;;;;;;4.73;4.27;;;21.30;99.90;;;;;;5045670;28;20947;-92
2023/07/16 05:41:54;;;;;;;4.90;4.40;;;21.00;99.90;;;;;;5052172;28;20490;-90
2023/07/16 05:44:21;;;;;;;5.80;4.43;;;21.20;99.90;;;;;;5057394;28;20494;-91
2023/07/16 05:46:49;;;;;;;4.93;4.43;;;21.30;99.90;;;;;;5056550;28;20470;-90
2023/07/16 05:49:16;;;;;;;4.67;4.37;;;;;;;;;;5049672;28;20435;-90
2023/07/16 05:51:43;;;;;;;5.10;3.77;;;;;;;;;;5043559;28;20467;-90
2023/07/16 05:54:10;;;;;;;5.50;4.53;;;21.40;99.90;;;;;;5047556;28;20469;-90
2023/07/16 05:56:37;;;;;;;4.63;4.23;;;21.70;99.90;;;;;;5054803;28;20446;-90
2023/07/16 05:59:04;;;;;;;5.80;4.50;;;21.50;99.90;;;;;;5048628;28;20907;-90
2023/07/16 06:01:31;;;;;;;4.93;4.50;;;21.50;99.90;;;;;;5042761;28;20466;-90
2023/07/16 06:03:59;;;;;;;4.30;3.90;;;21.60;99.90;;;;;;5038705;28;20517;-90
2023/07/16 06:06:29;;;;;;;4.17;3.77;;;21.70;99.90;;;;;;5048247;28;20517;-90
2023/07/16 06:08:56;;;;;;;4.57;4.17;;;21.70;99.90;;;;;;5041965;28;20501;-90
2023/07/16 06:11:23;;;;;;;6.10;4.10;;;21.90;95.10;;;;;;5038902;28;20486;-90
2023/07/16 06:13:49;;;;;;;6.07;4.83;;;21.80;11.40;;;;;;5038822;28;20504;-90
2023/07/16 06:16:16;;;;;;;4.30;3.90;;;21.80;19.60;;;;;;5038033;28;20441;-90
2023/07/16 06:18:43;;;;;;;5.13;4.67;;;;;;;;;;5037980;28;20895;-90
2023/07/16 06:21:11;;;;;;;5.73;3.90;;;22.00;1.00;;;;;;5037807;28;20471;-91
2023/07/16 06:23:39;;;;;;;5.03;4.47;;;;;;;;;;5038126;28;20455;-90
2023/07/16 06:26:06;;;;;;;5.03;4.67;;;22.00;1.00;;;;;;5039903;28;20445;-91
2023/07/16 06:28:33;;;;;;;4.60;4.07;;;22.20;1.00;;;;;;5045891;28;20537;-90
2023/07/16 06:31:00;;;;;;;8.67;5.27;;;22.10;1.00;;;;;;5038442;28;20557;-90
2023/07/16 06:33:28;;;;;;;4.50;4.10;;;22.10;1.00;;;;;;5038220;28;20450;-90
2023/07/16 06:35:54;;;;;;;3.80;3.50;;;22.30;1.00;;;;;;5038384;28;20943;-90
2023/07/16 06:38:23;;;;;;;6.33;4.87;;;22.30;1.00;;;;;;5037937;28;20520;-90
2023/07/16 06:40:51;;;;;;;5.77;4.37;;;22.50;99.90;;;;;;5038442;28;20534;-91
2023/07/16 06:43:18;;;;;;;4.20;3.80;;;22.60;99.90;;;;;;5039325;28;20443;-90
2023/07/16 06:45:45;;;;;;;4.63;4.23;;;;;;;;;;5039780;28;20506;-90
2023/07/16 06:48:12;;;;;;;4.60;4.17;;;22.70;1.00;;;;;;5045797;28;20533;-91
2023/07/16 06:50:39;;;;;;;5.40;4.23;;;22.90;1.00;;;;;;5042744;28;20560;-91
2023/07/16 06:53:09;;;;;;;4.40;4.00;;;;;;;;;;5053199;28;20465;-90
2023/07/16 06:55:37;;;;;;;5.30;4.13;;;22.90;1.00;;;;;;5052377;28;20427;-90
2023/07/16 06:58:04;;;;;;;4.03;3.73;;;23.00;99.90;;;;;;5052731;28;20487;-90
2023/07/16 07:00:32;;;;;;;6.13;4.63;;;23.10;69.00;;;;;;5058251;28;20804;-90
2023/07/16 07:02:59;;;;;;;5.30;4.80;;;23.10;99.90;;;;;;5056809;28;20507;-90
2023/07/16 07:05:26;;;;;;;9.30;8.37;;;23.30;99.90;;;;;;5052453;28;20473;-90
2023/07/16 07:07:53;;;;;;;5.10;4.70;;;23.40;1.00;;;;;;5052408;28;20447;-90
2023/07/16 07:10:20;;;;;;;4.87;4.37;;;;;;;;;;5045463;28;20470;-90
2023/07/16 07:12:48;;;;;;;4.73;4.33;;;23.70;99.90;;;;;;5048096;28;20439;-91
2023/07/16 07:15:16;;;;;;;4.67;3.70;;;;;;;;;;5048420;28;20446;-91
2023/07/16 07:17:46;;;;;;;3.50;3.30;;;23.60;1.00;;;;;;5045202;28;20606;-91
2023/07/16 07:20:14;;;;;;;3.77;3.47;;;23.70;99.90;;;;;;5048154;28;20539;-90
2023/07/16 07:22:41;;;;;;;5.10;4.53;;;;;;;;;;5044120;28;20537;-91
2023/07/16 07:25:08;;;;;;;4.10;3.70;;;23.70;99.90;;;;;;5044093;28;20550;-89
2023/07/16 07:27:35;;;;;;;3.67;3.47;;;;;;;;;;5043341;28;20466;-89
2023/07/16 07:30:05;;;;;;;4.63;4.10;;;24.10;1.00;;;;;;5049110;28;20533;-90
2023/07/16 07:32:33;;;;;;;4.00;3.73;;;;;;;;;;5047690;28;20485;-91
2023/07/16 07:35:00;;;;;;;3.53;3.23;;;;;;;;;;5046958;28;20434;-91
2023/07/16 07:37:27;;;;;;;4.00;3.70;;;23.70;99.90;;;;;;5043979;28;20446;-91
2023/07/16 07:39:54;;;;;;;3.70;3.40;;;;;;;;;;5043949;28;20482;-91
2023/07/16 07:42:21;;;;;;;4.27;3.90;;;;;;;;;;5045083;28;20870;-90
2023/07/16 07:44:48;;;;;;;4.23;3.83;;;;;;;;;;5042330;28;20487;-91
2023/07/16 07:47:17;;;;;;;6.10;4.00;;;23.60;99.90;;;;;;5043242;28;20525;-90
2023/07/16 07:49:44;;;;;;;4.50;4.10;;;;;;;;;;5054311;28;20482;-90
2023/07/16 07:52:11;;;;;;;6.43;4.67;;;23.80;99.90;;;;;;5045239;28;20467;-90
2023/07/16 07:54:38;;;;;;;3.73;3.43;;;;;;;;;;5045346;28;20462;-89
2023/07/16 07:57:06;;;;;;;3.50;3.30;;;24.30;99.90;;;;;;5044029;28;20498;-90
2023/07/16 07:59:33;;;;;;;4.17;3.77;;;24.40;99.90;;;;;;5043510;28;20896;-90
2023/07/16 08:02:01;;;;;;;4.73;4.33;;;;;;;;;;5045517;28;20534;-90
2023/07/16 08:04:31;;;;;;;3.47;3.17;;;24.20;99.90;;;;;;5044691;28;20506;-89
2023/07/16 08:06:58;;;;;;;6.23;4.67;;;23.90;1.00;;;;;;5045378;28;20435;-89
2023/07/16 08:09:27;;;;;;;3.90;3.60;;;23.70;99.90;;;;;;5060044;28;20454;-88
2023/07/16 08:11:54;;;;;;;4.43;3.30;;;;;;;;;;5056378;28;20510;-89
2023/07/16 08:14:21;;;;;;;3.90;3.50;;;23.70;99.90;;;;;;5051459;28;20450;-90
2023/07/16 08:16:48;;;;;;;3.73;3.43;;;23.60;99.90;;;;;;5058180;28;20494;-89
2023/07/16 08:19:15;;;;;;;4.30;3.90;;;23.60;99.90;;;;;;5051098;28;20494;-91
2023/07/16 08:21:45;;;;;;;5.50;3.70;;;23.70;99.90;;;;;;5049658;28;20502;-89
2023/07/16 08:24:12;;;;;;;3.23;2.93;;;;;;;;;;5045446;28;20447;-91
2023/07/16 08:26:39;;;;;;;3.07;2.77;;;23.90;75.90;;;;;;5044436;28;20482;-91
2023/07/16 08:29:06;;;;;;;4.53;2.77;;;;;;;;;;5050063;28;20419;-92
2023/07/16 08:31:33;;;;;;;3.60;3.20;;;;;;;;;;5053941;28;20505;-90
2023/07/16 08:34:00;;;;;;;5.13;2.97;;;23.80;1.00;;;;;;5044743;28;20531;-91
2023/07/16 08:36:27;;;;;;;2.77;2.63;;;;;;;;;;5044714;28;20486;-89
2023/07/16 08:38:55;;;;;;;3.10;2.70;;;23.70;1.00;;;;;;5046129;28;20450;-91
2023/07/16 18:56:58;;;;;;;4.10;3.27;;;25.30;99.90;;;;;;5597128;23;20499;-90
2023/07/16 18:59:25;;;;;;;3.20;2.90;;;24.70;99.90;;;;;;5015250;28;20440;-90
2023/07/16 19:01:52;;;;;;;12.27;3.87;;;25.50;99.90;;;;;;5008974;28;20444;-90
2023/07/16 19:04:19;;;;;;;5.33;2.70;;;25.30;99.90;;;;;;5008295;28;20479;-91
2023/07/16 19:06:46;;;;;;;8.30;3.80;;;25.10;99.90;;;;;;5008504;28;20495;-91
2023/07/16 19:09:13;;;;;;;4.30;3.17;;;;;;;;;;5010167;28;20524;-91
2023/07/16 19:11:42;;;;;;;5.57;4.23;;;;;;;;;;5007733;28;20460;-91
2023/07/16 19:14:11;;;;;;;5.17;3.77;;;25.00;99.90;;;;;;5008027;28;20469;-90
2023/07/16 19:16:39;;;;;;;3.80;2.90;;;;;;;;;;5007128;28;20472;-90
2023/07/16 19:19:07;;;;;;;4.73;3.90;;;;;;;;;;5007837;28;20471;-91
2023/07/16 19:21:34;;;;;;;3.87;3.50;;;;;;;;;;5014091;28;20479;-91
2023/07/16 19:24:02;;;;;;;3.50;3.20;;;;;;;;;;5018377;28;20480;-90
2023/07/16 19:26:29;;;;;;;4.67;4.20;;;24.80;99.90;;;;;;5013525;28;20496;-91
2023/07/16 19:28:59;;;;;;;8.73;7.37;;;25.20;1.00;;;;;;5084591;22;20514;-91
2023/07/16 19:31:28;;;;;;;7.93;4.97;;;24.50;1.00;;;;;;5040211;28;20428;-90
2023/07/16 19:33:55;;;;;;;6.50;4.03;;;;;;;;;;5040794;28;20495;-91
2023/07/16 19:36:22;;;;;;;7.57;6.23;;;;;;;;;;5035543;28;20455;-93
2023/07/16 19:38:50;;;;;;;5.50;5.10;;;;;;;;;;5030276;28;20519;-92
2023/07/16 21:27:48;;;;;;;8.60;5.60;;;22.50;99.90;;;;;;861070;22;20824;-94
2023/07/16 21:49:04;;;;;;;8.33;6.20;;;;;;;;;;4947830;22;20428;-91
2023/07/16 21:51:31;;;;;;;7.57;6.20;;;22.00;99.90;;;;;;5005341;28;20480;-91
2023/07/16 21:53:59;;;;;;;7.27;6.57;;;;;;;;;;5003746;28;20883;-92
2023/07/16 21:56:26;;;;;;;7.30;6.57;;;;;;;;;;5004329;28;20448;-90
2023/07/16 21:58:53;;;;;;;8.13;6.93;;;21.50;1.00;;;;;;5007476;28;20452;-90
2023/07/16 22:01:22;;;;;;;7.73;6.60;;;21.70;99.90;;;;;;5007277;28;20536;-91
2023/07/16 22:03:58;;;;;;;9.30;6.53;;;21.70;99.90;;;;;;5006411;28;20448;-92
2023/07/16 22:06:34;;;;;;;6.20;5.57;;;21.50;99.90;;;;;;5005635;28;20482;-90
2023/07/16 22:09:06;;;;;;;9.13;6.77;;;21.20;1.00;;;;;;5006006;28;20444;-90
2023/07/16 22:11:35;;;;;;;9.03;7.07;;;21.60;99.90;;;;;;5005354;28;20444;-92
2023/07/16 22:14:05;;;;;;;6.60;5.80;;;21.70;99.90;;;;;;5007044;28;20519;-94
2023/07/16 22:16:34;;;;;;;7.70;4.80;;;21.60;99.90;;;;;;5002232;28;20467;-91
2023/07/16 22:19:12;;;;;;;6.40;5.30;;;22.00;99.90;;;;;;5005264;28;20628;-92
2023/07/16 22:21:50;;;;;;;5.87;5.00;;;22.10;99.90;;;;;;5012879;28;20452;-92
2023/07/16 22:31:14;;;;;;;7.37;4.40;;;22.30;99.90;;;;;;4899928;29;20454;-92
2023/07/16 22:38:04;;;;;;;;;;;;;;;;;;;;;
2023/07/16 22:52:19;;;;;;;6.47;5.03;;;22.40;99.90;;;;;;5033982;28;20458;-92
2023/07/16 22:55:09;;;;;;;8.63;5.00;;;22.20;99.90;;;;;;5034377;28;20447;-93
